This is the latest recevied weather packets stored in our database for station/object M0IQF-13. If no packets are shown the sender has not sent any weather packets the latest 10 day(s).
| Time | Temp. | Humidity | Pressure | Rain* | Wind** | Luminosity | Snow |
|---|---|---|---|---|---|---|---|
| 1777516374 | 15° C | 57% | 1022.9 hPa | - | - | - | - |
| 1777515468 | 15° C | 58% | 1023.1 hPa | - | - | - | - |
| 1777514560 | 15.56° C | 55% | 1023.1 hPa | - | - | - | - |
| 1777513652 | 15° C | 58% | 1023.4 hPa | - | - | - | - |
| 1777512742 | 15° C | 61% | 1023.4 hPa | - | - | - | - |
| 1777511835 | 15.56° C | 55% | 1023.3 hPa | - | - | - | - |
| 1777510927 | 15.56° C | 56% | 1023.3 hPa | - | - | - | - |
| 1777510020 | 15.56° C | 55% | 1023.4 hPa | - | - | - | - |
| 1777509112 | 15.56° C | 58% | 1023.6 hPa | - | - | - | - |
| 1777508205 | 16.11° C | 54% | 1023.8 hPa | - | - | - | - |
| 1777507298 | 15.56° C | 56% | 1023.8 hPa | - | - | - | - |
| 1777506391 | 15.56° C | 55% | 1024 hPa | - | - | - | - |
| 1777505484 | 16.11° C | 51% | 1024 hPa | - | - | - | - |
| 1777504577 | 16.11° C | 54% | 1023.9 hPa | - | - | - | - |
| 1777503670 | 16.11° C | 53% | 1023.9 hPa | - | - | - | - |
| 1777502762 | 15° C | 57% | 1023.8 hPa | - | - | - | - |
| 1777501856 | 15.56° C | 50% | 1023.7 hPa | - | - | - | - |
| 1777500948 | 15° C | 51% | 1023.8 hPa | - | - | - | - |
| 1777500042 | 16.67° C | 46% | 1023.9 hPa | - | - | - | - |
| 1777499135 | 16.11° C | 46% | 1023.9 hPa | - | - | - | - |
| 1777498228 | 16.67° C | 41% | 1023.9 hPa | - | - | - | - |
| 1777497320 | 16.67° C | 40% | 1023.9 hPa | - | - | - | - |
| 1777496414 | 17.22° C | 39% | 1023.9 hPa | - | - | - | - |
| 1777495506 | 16.67° C | 38% | 1023.7 hPa | - | - | - | - |
| 1777494599 | 17.22° C | 35% | 1023.7 hPa | - | - | - | - |
* Rain since midnight (hover to see other rain measurements)
** Current wind speed in m/s (hover to see current wind gust speed)